createdAt,value
2019-05-14T00:07:18.264Z,10.90
2019-05-14T00:17:23.757Z,10.80
2019-05-14T00:27:31.203Z,10.80
2019-05-14T00:37:36.680Z,11.00
2019-05-14T00:47:42.259Z,11.20
2019-05-14T00:57:47.763Z,11.30
2019-05-14T01:07:53.021Z,11.50
2019-05-14T01:17:58.340Z,11.60
2019-05-14T01:28:04.167Z,11.60
2019-05-14T01:38:11.340Z,11.70
2019-05-14T01:48:16.411Z,11.60
2019-05-14T01:58:22.208Z,11.50
2019-05-14T02:08:27.660Z,11.30
2019-05-14T02:18:33.142Z,11.20
2019-05-14T02:28:38.407Z,10.80
2019-05-14T02:38:43.673Z,10.50
2019-05-14T02:48:49.377Z,10.30
2019-05-14T02:58:55.628Z,10.10
2019-05-14T03:09:00.952Z,9.90
2019-05-14T03:19:09.724Z,9.40
2019-05-14T03:29:13.686Z,9.30
2019-05-14T03:39:19.171Z,9.00
2019-05-14T03:49:24.769Z,9.00
2019-05-14T03:59:30.364Z,8.90
2019-05-14T04:09:39.778Z,8.90
2019-05-14T04:19:45.589Z,9.10
2019-05-14T04:29:53.680Z,9.40
2019-05-14T04:39:59.419Z,9.50
2019-05-14T04:50:05.773Z,9.80
2019-05-14T05:00:12.551Z,9.90
2019-05-14T05:10:19.295Z,10.00
2019-05-14T05:20:25.106Z,10.20
2019-05-14T05:30:30.418Z,10.40
2019-05-14T05:40:36.084Z,10.60
2019-05-14T05:50:41.390Z,10.80
2019-05-14T06:00:49.541Z,10.90
2019-05-14T06:10:53.792Z,11.00
2019-05-14T06:20:59.387Z,11.40
2019-05-14T06:31:04.648Z,11.70
2019-05-14T06:41:09.917Z,11.90
2019-05-14T06:51:15.237Z,12.00
2019-05-14T07:01:21.417Z,12.10
2019-05-14T07:11:29.003Z,12.20
2019-05-14T07:21:33.642Z,12.40
2019-05-14T07:31:38.928Z,12.70
2019-05-14T07:41:44.293Z,12.80
2019-05-14T07:51:49.676Z,13.10
2019-05-14T08:01:55.268Z,13.30
2019-05-14T08:12:00.551Z,13.50
2019-05-14T08:22:06.063Z,13.80
2019-05-14T08:32:11.668Z,14.20
2019-05-14T08:42:18.590Z,14.60
2019-05-14T08:52:24.131Z,14.80
2019-05-14T09:02:29.476Z,15.10
2019-05-14T09:12:34.791Z,15.20
2019-05-14T09:22:40.247Z,15.30
2019-05-14T09:32:46.654Z,15.30
2019-05-14T09:42:52.957Z,15.40
2019-05-14T09:52:59.275Z,15.60
2019-05-14T10:03:04.753Z,15.30
2019-05-14T10:13:10.237Z,15.70
2019-05-14T10:23:15.588Z,15.90
2019-05-14T10:33:20.840Z,16.10
2019-05-14T10:43:28.590Z,16.70
2019-05-14T10:53:33.072Z,16.30
2019-05-14T11:03:38.814Z,16.90
2019-05-14T11:13:44.307Z,18.30
2019-05-14T11:23:49.838Z,17.60
2019-05-14T11:33:55.124Z,16.90
2019-05-14T11:44:00.380Z,18.60
2019-05-14T11:54:05.695Z,19.00
2019-05-14T12:04:11.180Z,19.10
2019-05-14T12:14:18.979Z,18.60
2019-05-14T12:24:23.724Z,18.20
2019-05-14T12:34:29.705Z,18.50
2019-05-14T12:44:38.158Z,18.80
2019-05-14T12:54:42.844Z,17.90
2019-05-14T13:04:48.702Z,17.60
2019-05-14T13:14:54.087Z,18.40
2019-05-14T13:24:59.556Z,19.60
2019-05-14T13:35:09.649Z,20.00
2019-05-14T13:45:13.190Z,19.60
2019-05-14T13:55:19.417Z,18.60
2019-05-14T14:05:25.308Z,18.10
2019-05-14T14:15:31.634Z,18.60
2019-05-14T14:25:39.314Z,18.80
2019-05-14T14:35:43.912Z,18.30
2019-05-14T14:45:50.852Z,17.90
2019-05-14T14:55:56.127Z,17.80
2019-05-14T15:06:01.395Z,17.70
2019-05-14T15:16:12.815Z,17.70
2019-05-14T15:26:13.777Z,18.70
2019-05-14T15:36:19.781Z,19.30
2019-05-14T15:46:25.293Z,18.50
2019-05-14T15:56:30.544Z,17.80
2019-05-14T16:06:38.419Z,17.40
2019-05-14T16:16:42.745Z,17.10
2019-05-14T16:26:48.325Z,17.00
2019-05-14T16:36:53.595Z,16.70
2019-05-14T16:46:58.995Z,16.80
2019-05-14T16:57:04.348Z,16.70
2019-05-14T17:07:10.949Z,16.50
2019-05-14T17:17:16.246Z,16.50
2019-05-14T17:27:21.756Z,16.50
2019-05-14T17:37:28.584Z,16.40
2019-05-14T17:47:33.948Z,16.30
2019-05-14T17:57:45.814Z,16.10
2019-05-14T18:07:48.296Z,15.90
2019-05-14T18:17:53.380Z,15.70
2019-05-14T18:27:59.764Z,15.50
2019-05-14T18:38:05.028Z,15.20
2019-05-14T18:48:10.516Z,14.90
2019-05-14T18:58:19.299Z,14.60
2019-05-14T19:08:23.052Z,14.40
2019-05-14T19:18:28.764Z,14.10
2019-05-14T19:28:34.247Z,13.90
2019-05-14T19:38:39.571Z,13.70
2019-05-14T19:48:44.825Z,13.50
2019-05-14T19:58:50.333Z,13.30
2019-05-14T20:08:58.584Z,13.00
2019-05-14T20:19:02.772Z,12.80
2019-05-14T20:29:08.868Z,12.70
2019-05-14T20:39:14.279Z,12.50
2019-05-14T20:49:19.554Z,12.20
2019-05-14T20:59:24.880Z,12.00
2019-05-14T21:09:30.173Z,11.90
2019-05-14T21:19:35.433Z,11.70
2019-05-14T21:29:40.687Z,11.50
2019-05-14T21:39:45.941Z,11.40
2019-05-14T21:49:51.190Z,11.30
2019-05-14T21:59:58.724Z,11.10
2019-05-14T22:10:04.668Z,11.00
2019-05-14T22:20:09.960Z,10.90
2019-05-14T22:30:15.388Z,10.70
2019-05-14T22:40:21.523Z,10.50
2019-05-14T22:50:29.185Z,10.10
2019-05-14T23:00:33.826Z,9.80
2019-05-14T23:10:39.127Z,9.50
2019-05-14T23:20:45.044Z,9.30
2019-05-14T23:30:50.435Z,9.10
2019-05-14T23:40:55.751Z,8.80
2019-05-14T23:51:00.999Z,8.60
